createdAt,value
2022-12-23T00:01:05.872Z,96313.50
2022-12-23T00:06:12.260Z,96304.50
2022-12-23T00:11:17.891Z,96298.28
2022-12-23T00:16:19.802Z,96300.53
2022-12-23T00:21:22.979Z,96299.44
2022-12-23T00:26:26.583Z,96300.25
2022-12-23T00:31:28.296Z,96300.84
2022-12-23T00:36:30.665Z,96282.81
2022-12-23T00:41:51.510Z,96275.13
2022-12-23T00:46:53.139Z,96264.19
2022-12-23T00:51:54.822Z,96262.56
2022-12-23T00:56:56.449Z,96256.00
2022-12-23T01:02:16.955Z,96244.78
2022-12-23T01:07:18.703Z,96250.50
2022-12-23T01:12:20.444Z,96243.94
2022-12-23T01:17:22.296Z,96243.72
2022-12-23T01:22:24.071Z,96238.59
2022-12-23T01:27:25.743Z,96240.25
2022-12-23T01:32:27.394Z,96239.66
2022-12-23T01:37:29.068Z,96231.19
2022-12-23T01:42:46.703Z,96234.19
2022-12-23T01:47:55.734Z,96241.84
2022-12-23T01:53:11.828Z,96227.63
2022-12-23T01:58:18.001Z,96228.75
2022-12-23T02:03:38.450Z,96227.09
2022-12-23T02:08:58.984Z,96228.75
2022-12-23T02:14:59.508Z,96225.72
2022-12-23T02:20:21.457Z,96247.81
2022-12-23T02:25:55.406Z,96247.22
2022-12-23T02:31:35.783Z,96242.59
2022-12-23T02:36:48.402Z,96241.78
2022-12-23T02:42:07.250Z,96245.88
2022-12-23T02:47:14.451Z,96242.84
2022-12-23T02:52:19.508Z,96235.72
2022-12-23T02:57:27.004Z,96245.28
2022-12-23T03:02:30.796Z,96248.78
2022-12-23T03:07:38.500Z,96238.91
2022-12-23T03:12:49.055Z,96242.75
2022-12-23T03:18:04.765Z,96234.56
2022-12-23T03:23:18.696Z,96228.50
2022-12-23T03:28:41.711Z,96235.88
2022-12-23T03:33:52.577Z,96227.94
2022-12-23T03:38:55.921Z,96252.78
2022-12-23T03:44:06.278Z,96244.81
2022-12-23T03:49:23.515Z,96246.44
2022-12-23T03:54:34.309Z,96249.94
2022-12-23T03:59:41.013Z,96257.81
2022-12-23T04:04:45.616Z,96254.75
2022-12-23T04:09:48.297Z,96258.22
2022-12-23T04:14:50.160Z,96250.19
2022-12-23T04:19:53.141Z,96252.88
2022-12-23T04:24:54.708Z,96262.66
2022-12-23T04:29:56.452Z,96270.59
2022-12-23T04:34:58.139Z,96268.59
2022-12-23T04:40:00.166Z,96269.69
2022-12-23T04:45:02.791Z,96273.16
2022-12-23T04:50:05.051Z,96292.28
2022-12-23T04:55:07.193Z,96288.38
2022-12-23T05:00:09.615Z,96288.88
2022-12-23T05:05:11.292Z,96286.09
2022-12-23T05:10:12.967Z,96277.84
2022-12-23T05:15:14.694Z,96292.84
2022-12-23T05:20:16.455Z,96300.78
2022-12-23T05:25:18.294Z,96297.75
2022-12-23T05:30:20.120Z,96298.47
2022-12-23T05:35:22.952Z,96313.81
2022-12-23T05:40:24.995Z,96326.41
2022-12-23T05:45:29.929Z,96334.03
2022-12-23T05:50:31.584Z,96330.47
2022-12-23T05:55:36.970Z,96335.78
2022-12-23T06:00:38.688Z,96331.94
2022-12-23T06:05:40.559Z,96341.25
2022-12-23T06:10:42.235Z,96353.78
2022-12-23T06:15:43.950Z,96364.97
2022-12-23T06:20:47.477Z,96374.53
2022-12-23T06:25:49.363Z,96373.50
2022-12-23T06:30:55.733Z,96377.09
2022-12-23T06:35:58.103Z,96382.34
2022-12-23T06:40:59.734Z,96393.28
2022-12-23T06:46:01.652Z,96387.53
2022-12-23T06:51:04.056Z,96397.94
2022-12-23T06:56:06.242Z,96392.47
2022-12-23T07:01:10.029Z,96403.94
2022-12-23T07:06:12.082Z,96403.69
2022-12-23T07:11:13.740Z,96417.34
2022-12-23T07:16:15.638Z,96426.91
2022-12-23T07:21:26.482Z,96430.72
2022-12-23T07:26:30.428Z,96443.53
2022-12-23T07:31:32.106Z,96445.16
2022-12-23T07:36:33.769Z,96459.41
2022-12-23T07:41:35.432Z,96457.16
2022-12-23T07:46:41.635Z,96462.88
2022-12-23T07:51:43.414Z,96465.06
2022-12-23T07:56:45.236Z,96464.75
2022-12-23T08:01:47.127Z,96459.81
2022-12-23T08:06:49.037Z,96471.28
2022-12-23T08:11:50.911Z,96473.72
2022-12-23T08:16:52.643Z,96477.84
2022-12-23T08:21:54.498Z,96477.25
2022-12-23T08:26:57.164Z,96472.56
2022-12-23T08:31:58.962Z,96471.19
2022-12-23T08:37:01.242Z,96459.66
2022-12-23T08:42:03.134Z,96466.19
2022-12-23T08:47:04.840Z,96478.19
2022-12-23T08:52:06.576Z,96499.03
2022-12-23T08:57:08.363Z,96510.50
2022-12-23T09:02:11.787Z,96514.34
2022-12-23T09:07:13.841Z,96526.34
2022-12-23T09:12:16.120Z,96526.34
2022-12-23T09:17:17.865Z,96509.28
2022-12-23T09:22:19.540Z,96498.47
2022-12-23T09:27:21.497Z,96489.34
2022-12-23T09:32:23.158Z,96496.41
2022-12-23T09:37:25.361Z,96501.84
2022-12-23T09:42:35.758Z,96506.16
2022-12-23T09:47:38.276Z,96503.03
2022-12-23T09:52:49.792Z,96498.31
2022-12-23T09:58:01.278Z,96498.25
2022-12-23T10:03:26.089Z,96482.84
2022-12-23T10:08:39.742Z,96483.88
2022-12-23T10:13:43.768Z,96494.50
2022-12-23T10:18:51.465Z,96480.47
2022-12-23T10:23:54.385Z,96478.22
2022-12-23T10:29:02.625Z,96473.56
2022-12-23T10:34:17.594Z,96468.91
2022-12-23T10:39:52.856Z,96468.31
2022-12-23T10:45:18.343Z,96475.94
2022-12-23T10:50:51.139Z,96464.69
2022-12-23T10:55:57.404Z,96444.03
2022-12-23T11:01:09.926Z,96453.31
2022-12-23T11:06:15.863Z,96462.59
2022-12-23T11:11:17.544Z,96456.81
2022-12-23T11:16:22.381Z,96443.81
2022-12-23T11:21:24.455Z,96442.38
2022-12-23T11:26:26.203Z,96446.78
2022-12-23T11:31:35.113Z,96449.81
2022-12-23T11:36:38.175Z,96444.94
2022-12-23T11:41:44.020Z,96443.56
2022-12-23T11:46:45.913Z,96441.72
2022-12-23T11:52:01.725Z,96430.53
2022-12-23T11:57:06.141Z,96420.97
2022-12-23T12:02:21.991Z,96434.19
2022-12-23T12:07:24.182Z,96418.50
2022-12-23T12:12:27.466Z,96403.69
2022-12-23T12:17:41.731Z,96403.41
2022-12-23T12:22:52.531Z,96400.34
2022-12-23T12:28:02.652Z,96391.81
2022-12-23T12:33:19.179Z,96367.91
2022-12-23T12:38:27.587Z,96363.25
2022-12-23T12:43:35.137Z,96349.81
2022-12-23T12:48:47.180Z,96353.38
2022-12-23T12:54:25.130Z,96338.84
2022-12-23T12:59:35.712Z,96329.78
2022-12-23T13:05:15.300Z,96334.16
2022-12-23T13:10:39.194Z,96328.88
2022-12-23T13:16:02.323Z,96325.22
2022-12-23T13:21:12.206Z,96319.13
2022-12-23T13:26:40.319Z,96302.78
2022-12-23T13:31:51.242Z,96287.41
2022-12-23T13:37:36.349Z,96282.50
2022-12-23T13:42:52.401Z,96288.59
2022-12-23T13:48:36.932Z,96272.13
2022-12-23T13:54:02.296Z,96283.13
2022-12-23T13:59:10.706Z,96294.09
2022-12-23T14:04:32.420Z,96290.84
2022-12-23T14:09:38.534Z,96279.06
2022-12-23T14:14:53.020Z,96279.66
2022-12-23T14:20:07.932Z,96277.22
2022-12-23T14:25:31.183Z,96277.81
2022-12-23T14:30:41.252Z,96264.41
2022-12-23T14:35:43.242Z,96251.50
2022-12-23T14:41:15.574Z,96260.53
2022-12-23T14:46:35.886Z,96236.13
2022-12-23T14:51:40.142Z,96236.44
2022-12-23T14:56:57.299Z,96227.41
2022-12-23T15:02:03.111Z,96232.06
2022-12-23T15:07:42.100Z,96227.41
2022-12-23T15:12:48.003Z,96224.13
2022-12-23T15:18:05.656Z,96228.00
2022-12-23T15:23:10.647Z,96221.69
2022-12-23T15:28:18.849Z,96222.53
2022-12-23T15:34:01.661Z,96211.53
2022-12-23T15:38:51.355Z,96210.72
2022-12-23T15:43:57.607Z,96215.91
2022-12-23T15:49:00.389Z,96208.19
2022-12-23T15:54:06.439Z,96208.19
2022-12-23T15:59:21.028Z,96212.56
2022-12-23T16:04:29.148Z,96208.69
2022-12-23T16:09:35.174Z,96205.63
2022-12-23T16:14:41.904Z,96215.81
2022-12-23T16:19:45.426Z,96198.53
2022-12-23T16:24:51.665Z,96204.84
2022-12-23T16:29:53.425Z,96193.16
2022-12-23T16:34:55.185Z,96178.81
2022-12-23T16:39:56.819Z,96182.06
2022-12-23T16:44:58.627Z,96189.19
2022-12-23T16:50:00.400Z,96192.44
2022-12-23T16:55:02.048Z,96181.69
2022-12-23T17:00:04.148Z,96180.25
2022-12-23T17:05:07.747Z,96173.84
2022-12-23T17:10:10.536Z,96179.84
2022-12-23T17:15:18.004Z,96185.53
2022-12-23T17:20:22.117Z,96180.53
2022-12-23T17:25:26.692Z,96190.09
2022-12-23T17:30:28.589Z,96197.72
2022-12-23T17:35:30.929Z,96186.81
2022-12-23T17:40:32.644Z,96197.19
2022-12-23T17:45:34.517Z,96213.81
2022-12-23T17:50:36.724Z,96215.44
2022-12-23T17:55:38.732Z,96207.72
2022-12-23T18:00:41.086Z,96212.38
2022-12-23T18:05:42.729Z,96203.63
2022-12-23T18:10:45.579Z,96198.13
2022-12-23T18:15:47.724Z,96199.78
2022-12-23T18:20:52.814Z,96208.50
2022-12-23T18:25:56.058Z,96216.44
2022-12-23T18:30:58.201Z,96207.41
2022-12-23T18:35:59.969Z,96197.34
2022-12-23T18:41:01.887Z,96199.53
2022-12-23T18:46:03.782Z,96191.53
2022-12-23T18:51:05.522Z,96192.03
2022-12-23T18:56:09.879Z,96192.03
2022-12-23T19:01:16.173Z,96179.63
2022-12-23T19:06:18.021Z,96197.72
2022-12-23T19:11:20.768Z,96212.78
2022-12-23T19:16:22.627Z,96205.56
2022-12-23T19:21:24.489Z,96209.09
2022-12-23T19:26:26.252Z,96209.09
2022-12-23T19:31:29.760Z,96209.09
2022-12-23T19:36:31.923Z,96241.28
2022-12-23T19:41:33.570Z,96257.25
2022-12-23T19:46:35.371Z,96262.22
2022-12-23T19:51:37.099Z,96322.28
2022-12-23T19:56:38.961Z,96295.34
2022-12-23T20:01:40.688Z,96294.34
2022-12-23T20:06:43.415Z,96317.03
2022-12-23T20:11:47.112Z,96298.19
2022-12-23T20:16:49.319Z,96301.66
2022-12-23T20:21:52.029Z,96301.34
2022-12-23T20:26:53.723Z,96309.03
2022-12-23T20:31:55.383Z,96328.53
2022-12-23T20:36:57.027Z,96318.63
2022-12-23T20:41:58.724Z,96342.47
2022-12-23T20:47:00.534Z,96346.03
2022-12-23T20:52:02.251Z,96343.81
2022-12-23T20:57:04.086Z,96341.88
2022-12-23T21:02:06.176Z,96335.44
2022-12-23T21:07:08.400Z,96340.63
2022-12-23T21:12:10.476Z,96353.00
2022-12-23T21:17:12.142Z,96353.28
2022-12-23T21:22:13.826Z,96360.50
2022-12-23T21:27:15.794Z,96379.09
2022-12-23T21:32:17.474Z,96376.88
2022-12-23T21:37:19.078Z,96374.63
2022-12-23T21:42:21.130Z,96373.31
2022-12-23T21:47:22.802Z,96375.53
2022-12-23T21:52:24.485Z,96399.91
2022-12-23T21:57:26.193Z,96402.88
2022-12-23T22:02:27.891Z,96404.50
2022-12-23T22:07:29.616Z,96403.72
2022-12-23T22:12:31.229Z,96433.03
2022-12-23T22:17:32.889Z,96436.09
2022-12-23T22:22:34.693Z,96451.94
2022-12-23T22:27:36.568Z,96442.53
2022-12-23T22:32:42.414Z,96454.25
2022-12-23T22:37:44.458Z,96449.00
2022-12-23T22:42:46.287Z,96450.56
2022-12-23T22:47:47.998Z,96480.38
2022-12-23T22:52:50.148Z,96478.38
2022-12-23T22:57:51.916Z,96489.34
2022-12-23T23:02:53.661Z,96497.88
2022-12-23T23:07:55.324Z,96506.41
2022-12-23T23:12:57.002Z,96509.41
2022-12-23T23:17:58.660Z,96504.19
2022-12-23T23:23:00.403Z,96504.19
2022-12-23T23:28:02.115Z,96523.41
2022-12-23T23:33:04.447Z,96532.00
2022-12-23T23:38:06.179Z,96533.91
2022-12-23T23:43:08.322Z,96527.91
2022-12-23T23:48:11.914Z,96524.06
2022-12-23T23:53:15.032Z,96535.03
2022-12-23T23:58:16.694Z,96527.63
